createdAt,value
2019-03-29T00:00:47.495Z,0.00
2019-03-29T00:01:47.467Z,0.00
2019-03-29T00:02:47.419Z,0.00
2019-03-29T00:03:47.383Z,0.00
2019-03-29T00:04:47.342Z,0.00
2019-03-29T00:05:47.313Z,0.00
2019-03-29T00:06:47.277Z,0.00
2019-03-29T00:07:47.249Z,0.00
2019-03-29T00:08:47.214Z,0.00
2019-03-29T00:09:47.172Z,0.00
2019-03-29T00:10:47.307Z,0.00
2019-03-29T00:11:47.089Z,0.00
2019-03-29T00:12:47.054Z,0.00
2019-03-29T00:13:47.022Z,0.00
2019-03-29T00:14:46.987Z,0.00
2019-03-29T00:15:46.954Z,0.00
2019-03-29T00:16:46.902Z,0.00
2019-03-29T00:17:46.875Z,0.00
2019-03-29T00:18:46.853Z,0.00
2019-03-29T00:19:46.805Z,0.00
2019-03-29T00:20:47.277Z,0.00
2019-03-29T00:21:46.738Z,0.00
2019-03-29T00:22:46.693Z,0.00
2019-03-29T00:23:46.646Z,0.00
2019-03-29T00:24:46.619Z,0.00
2019-03-29T00:25:46.584Z,0.00
2019-03-29T00:26:46.544Z,0.00
2019-03-29T00:27:46.515Z,0.00
2019-03-29T00:28:46.463Z,0.00
2019-03-29T00:29:46.439Z,0.00
2019-03-29T00:30:46.460Z,0.00
2019-03-29T00:31:46.370Z,0.00
2019-03-29T00:32:46.324Z,0.00
2019-03-29T00:33:46.286Z,0.00
2019-03-29T00:34:46.250Z,0.00
2019-03-29T00:35:46.216Z,0.00
2019-03-29T00:36:46.188Z,0.00
2019-03-29T00:37:53.337Z,0.00
2019-03-29T00:38:46.104Z,0.00
2019-03-29T00:39:46.070Z,0.00
2019-03-29T00:40:46.029Z,0.00
2019-03-29T00:41:45.985Z,0.00
2019-03-29T00:42:45.955Z,0.00
2019-03-29T00:43:45.929Z,0.00
2019-03-29T00:44:45.888Z,0.00
2019-03-29T00:45:46.040Z,0.00
2019-03-29T00:46:45.820Z,0.00
2019-03-29T00:47:45.776Z,0.00
2019-03-29T00:48:45.752Z,0.00
2019-03-29T00:49:45.709Z,0.00
2019-03-29T00:50:45.661Z,0.00
2019-03-29T00:51:45.626Z,0.00
2019-03-29T00:52:45.595Z,0.00
2019-03-29T00:53:45.545Z,0.00
2019-03-29T00:54:45.520Z,0.00
2019-03-29T00:55:46.849Z,0.00
2019-03-29T00:56:45.437Z,0.00
2019-03-29T00:57:45.417Z,0.00
2019-03-29T00:58:45.376Z,0.00
2019-03-29T00:59:45.331Z,0.00
2019-03-29T01:00:45.294Z,0.00
2019-03-29T01:01:45.266Z,0.00
2019-03-29T01:02:45.244Z,0.00
2019-03-29T01:03:45.189Z,0.00
2019-03-29T01:04:45.171Z,0.00
2019-03-29T01:05:45.117Z,0.00
2019-03-29T01:06:45.078Z,0.00
2019-03-29T01:07:45.048Z,0.00
2019-03-29T01:08:45.008Z,0.00
2019-03-29T01:09:44.971Z,0.00
2019-03-29T01:10:44.932Z,0.00
2019-03-29T01:11:44.891Z,0.00
2019-03-29T01:12:44.875Z,0.00
2019-03-29T01:13:44.822Z,0.00
2019-03-29T01:14:44.787Z,0.00
2019-03-29T01:15:44.751Z,0.00
2019-03-29T01:16:44.707Z,0.00
2019-03-29T01:17:45.758Z,0.00
2019-03-29T01:18:44.638Z,0.00
2019-03-29T01:19:44.598Z,0.00
2019-03-29T01:20:44.565Z,0.00
2019-03-29T01:21:44.528Z,0.00
2019-03-29T01:22:44.493Z,0.00
2019-03-29T01:23:44.458Z,0.00
2019-03-29T01:24:44.431Z,0.00
2019-03-29T01:25:44.387Z,0.00
2019-03-29T01:26:44.339Z,0.00
2019-03-29T01:27:44.436Z,0.00
2019-03-29T01:28:44.272Z,0.00
2019-03-29T01:29:44.232Z,0.00
2019-03-29T01:30:44.202Z,0.00
2019-03-29T01:31:44.165Z,0.00
2019-03-29T01:32:44.124Z,0.00
2019-03-29T01:33:44.087Z,0.00
2019-03-29T01:34:44.065Z,0.00
2019-03-29T01:35:44.013Z,0.00
2019-03-29T01:36:43.984Z,0.00
2019-03-29T01:37:43.940Z,0.00
2019-03-29T01:38:43.898Z,0.00
2019-03-29T01:39:43.870Z,0.00
2019-03-29T01:40:43.829Z,0.00
2019-03-29T01:41:43.793Z,0.00
2019-03-29T01:42:44.903Z,0.00
2019-03-29T01:43:43.718Z,0.00
2019-03-29T01:44:43.684Z,0.00
2019-03-29T01:45:43.644Z,0.00
2019-03-29T01:46:43.611Z,0.00
2019-03-29T01:47:43.575Z,0.00
2019-03-29T01:48:43.530Z,0.00
2019-03-29T01:49:43.510Z,0.00
2019-03-29T01:50:43.456Z,0.00
2019-03-29T01:51:43.420Z,0.00
2019-03-29T01:52:43.380Z,0.00
2019-03-29T01:53:43.347Z,0.00
2019-03-29T01:54:43.304Z,0.00
2019-03-29T01:55:43.269Z,0.00
2019-03-29T01:56:43.240Z,0.00
2019-03-29T01:57:43.203Z,0.00
2019-03-29T01:58:43.168Z,0.00
2019-03-29T01:59:43.246Z,0.00
2019-03-29T02:00:43.090Z,0.00
2019-03-29T02:01:43.052Z,0.00
2019-03-29T02:02:43.011Z,0.00
2019-03-29T02:03:42.980Z,0.00
2019-03-29T02:04:42.951Z,0.00
2019-03-29T02:05:42.904Z,0.00
2019-03-29T02:06:42.882Z,0.00
2019-03-29T02:07:42.860Z,0.00
2019-03-29T02:08:42.791Z,0.00
2019-03-29T02:09:42.759Z,0.00
2019-03-29T02:10:42.721Z,0.00
2019-03-29T02:11:42.681Z,0.00
2019-03-29T02:12:42.640Z,0.00
2019-03-29T02:13:42.607Z,0.00
2019-03-29T02:14:42.566Z,0.00
2019-03-29T02:15:42.539Z,0.00
2019-03-29T02:16:42.495Z,0.00
2019-03-29T02:17:42.447Z,0.00
2019-03-29T02:18:42.420Z,0.00
2019-03-29T02:19:42.387Z,0.00
2019-03-29T02:20:42.340Z,0.00
2019-03-29T02:21:42.969Z,0.00
2019-03-29T02:22:42.271Z,0.00
2019-03-29T02:23:42.236Z,0.00
2019-03-29T02:24:42.204Z,0.00
2019-03-29T02:25:42.462Z,0.00
2019-03-29T02:26:42.127Z,0.00
2019-03-29T02:27:42.091Z,0.00
2019-03-29T02:28:42.054Z,0.00
2019-03-29T02:29:42.011Z,0.00
2019-03-29T02:30:41.969Z,0.00
2019-03-29T02:31:42.752Z,0.00
2019-03-29T02:32:41.903Z,0.00
2019-03-29T02:33:41.868Z,0.00
2019-03-29T02:34:43.588Z,0.00
2019-03-29T02:35:41.779Z,0.00
2019-03-29T02:36:41.739Z,0.00
2019-03-29T02:37:41.712Z,0.00
2019-03-29T02:38:54.949Z,0.00
2019-03-29T02:39:41.636Z,0.00
2019-03-29T02:40:41.603Z,0.00
2019-03-29T02:41:41.554Z,0.00
2019-03-29T02:42:42.657Z,0.00
2019-03-29T02:43:41.484Z,0.00
2019-03-29T02:44:41.459Z,0.00
2019-03-29T02:45:41.408Z,0.00
2019-03-29T02:46:41.378Z,0.00
2019-03-29T02:47:41.348Z,0.00
2019-03-29T02:48:41.302Z,0.00
2019-03-29T02:49:41.263Z,0.00
2019-03-29T02:50:41.223Z,0.00
2019-03-29T02:51:41.193Z,0.00
2019-03-29T02:52:41.155Z,0.00
2019-03-29T02:53:41.153Z,0.00
2019-03-29T02:54:41.076Z,0.00
2019-03-29T02:55:41.035Z,0.00
2019-03-29T02:56:41.010Z,0.00
2019-03-29T02:57:40.959Z,0.00
2019-03-29T02:58:40.936Z,0.00
2019-03-29T02:59:40.895Z,0.00
2019-03-29T03:00:40.847Z,0.00
2019-03-29T03:01:40.829Z,0.00
2019-03-29T03:02:40.773Z,0.00
2019-03-29T03:03:40.752Z,0.00
2019-03-29T03:04:40.703Z,0.00
2019-03-29T03:05:40.674Z,0.00
2019-03-29T03:06:40.667Z,0.00
2019-03-29T03:07:40.598Z,0.00
2019-03-29T03:08:40.560Z,0.00
2019-03-29T03:09:40.522Z,0.00
2019-03-29T03:10:40.475Z,0.00
2019-03-29T03:11:40.437Z,0.00
2019-03-29T03:12:40.405Z,0.00
2019-03-29T03:13:40.376Z,0.00
2019-03-29T03:14:40.336Z,0.00
2019-03-29T03:15:40.308Z,0.00
2019-03-29T03:16:40.255Z,0.00
2019-03-29T03:17:40.219Z,0.00
2019-03-29T03:18:40.187Z,0.00
2019-03-29T03:19:40.146Z,0.00
2019-03-29T03:20:40.099Z,0.00
2019-03-29T03:21:40.071Z,0.00
2019-03-29T03:22:40.051Z,0.00
2019-03-29T03:23:40.006Z,0.00
2019-03-29T03:24:39.955Z,0.00
2019-03-29T03:25:39.922Z,0.00
2019-03-29T03:26:39.879Z,0.00
2019-03-29T03:27:39.852Z,0.00
2019-03-29T03:28:48.457Z,0.00
2019-03-29T03:30:44.213Z,0.00
2019-03-29T03:31:44.140Z,0.00
2019-03-29T03:32:44.118Z,0.00
2019-03-29T03:33:44.075Z,0.00
2019-03-29T03:34:44.032Z,0.00
2019-03-29T03:35:43.989Z,0.00
2019-03-29T03:36:43.951Z,0.00
2019-03-29T03:37:43.912Z,0.00
2019-03-29T03:38:43.881Z,0.00
2019-03-29T03:39:43.840Z,0.00
2019-03-29T03:40:43.802Z,0.00
2019-03-29T03:41:43.766Z,0.00
2019-03-29T03:42:43.750Z,0.00
2019-03-29T03:43:43.721Z,0.00
2019-03-29T03:44:43.652Z,0.00
2019-03-29T03:45:43.637Z,0.00
2019-03-29T03:46:43.599Z,0.00
2019-03-29T03:47:43.565Z,0.00
2019-03-29T03:48:43.505Z,0.00
2019-03-29T03:49:43.469Z,0.00
2019-03-29T03:50:43.432Z,0.00
2019-03-29T03:51:43.398Z,0.00
2019-03-29T03:52:43.360Z,0.00
2019-03-29T03:53:43.316Z,0.00
2019-03-29T03:54:43.279Z,0.00
2019-03-29T03:55:43.232Z,0.00
2019-03-29T03:56:43.206Z,0.00
2019-03-29T03:57:43.174Z,0.00
2019-03-29T03:58:43.133Z,0.00
2019-03-29T03:59:43.098Z,0.00
2019-03-29T04:00:43.061Z,0.00
2019-03-29T04:01:43.043Z,0.00
2019-03-29T04:02:42.978Z,0.00
2019-03-29T04:03:42.944Z,0.00
2019-03-29T04:04:42.907Z,0.00
2019-03-29T04:05:42.869Z,0.00
2019-03-29T04:06:42.829Z,0.00
2019-03-29T04:07:42.796Z,0.00
2019-03-29T04:08:42.761Z,0.00
2019-03-29T04:09:49.750Z,0.00
2019-03-29T04:10:42.683Z,0.00
2019-03-29T04:11:42.643Z,0.00
2019-03-29T04:12:42.608Z,0.00
2019-03-29T04:13:42.574Z,0.00
2019-03-29T04:14:42.533Z,0.00
2019-03-29T04:15:42.508Z,0.00
2019-03-29T04:16:42.458Z,0.00
2019-03-29T04:17:42.417Z,0.00
2019-03-29T04:18:42.388Z,0.00
2019-03-29T04:19:42.339Z,0.00
2019-03-29T04:20:42.305Z,0.00
2019-03-29T04:21:42.271Z,0.00
2019-03-29T04:22:42.234Z,0.00
2019-03-29T04:23:42.197Z,0.00
2019-03-29T04:24:42.157Z,0.00
2019-03-29T04:25:42.119Z,0.00
2019-03-29T04:26:42.069Z,0.00
2019-03-29T04:27:42.038Z,0.00
2019-03-29T04:28:42.013Z,0.00
2019-03-29T04:29:41.969Z,0.00
2019-03-29T04:30:41.933Z,0.00
2019-03-29T04:31:41.897Z,0.00
2019-03-29T04:32:41.857Z,0.00
2019-03-29T04:33:41.816Z,0.00
2019-03-29T04:34:41.780Z,0.00
2019-03-29T04:35:41.742Z,0.00
2019-03-29T04:36:41.700Z,0.00
2019-03-29T04:37:41.674Z,0.00
2019-03-29T04:38:41.625Z,0.00
2019-03-29T04:39:41.598Z,0.00
2019-03-29T04:40:41.554Z,0.00
2019-03-29T04:41:41.516Z,0.00
2019-03-29T04:42:41.488Z,0.00
2019-03-29T04:43:41.440Z,0.00
2019-03-29T04:44:41.410Z,0.00
2019-03-29T04:45:41.371Z,0.00
2019-03-29T04:46:41.344Z,0.00
2019-03-29T04:47:41.296Z,0.00
2019-03-29T04:48:41.254Z,0.00
2019-03-29T04:49:41.223Z,0.00
2019-03-29T04:50:41.174Z,0.00
2019-03-29T04:51:41.146Z,0.00
2019-03-29T04:52:41.105Z,4.00
2019-03-29T04:53:41.066Z,0.00
2019-03-29T04:54:41.026Z,0.00
2019-03-29T04:55:41.002Z,4.00
2019-03-29T04:56:40.954Z,0.00
2019-03-29T04:57:40.923Z,4.00
2019-03-29T04:58:40.876Z,4.00
2019-03-29T04:59:40.851Z,8.00
2019-03-29T05:00:40.806Z,4.00
2019-03-29T05:01:40.776Z,8.00
2019-03-29T05:02:40.729Z,8.00
2019-03-29T05:03:40.696Z,8.00
2019-03-29T05:04:40.656Z,12.00
2019-03-29T05:05:40.622Z,12.00
2019-03-29T05:06:40.589Z,16.00
2019-03-29T05:07:40.545Z,16.00
2019-03-29T05:08:40.506Z,20.00
2019-03-29T05:09:40.466Z,24.00
2019-03-29T05:10:40.437Z,24.00
2019-03-29T05:11:40.395Z,32.00
2019-03-29T05:12:40.360Z,36.00
2019-03-29T05:13:40.315Z,40.00
2019-03-29T05:14:40.280Z,44.00
2019-03-29T05:15:40.250Z,48.00
2019-03-29T05:16:40.205Z,56.00
2019-03-29T05:17:40.162Z,60.00
2019-03-29T05:18:40.135Z,64.00
2019-03-29T05:19:40.087Z,76.00
2019-03-29T05:20:40.058Z,80.00
2019-03-29T05:21:40.011Z,88.00
2019-03-29T05:22:39.977Z,96.00
2019-03-29T05:23:39.946Z,104.00
2019-03-29T05:24:39.900Z,112.00
2019-03-29T05:25:39.866Z,120.00
2019-03-29T05:26:39.828Z,128.00
2019-03-29T05:27:39.801Z,140.00
2019-03-29T05:28:39.753Z,148.00
2019-03-29T05:29:39.711Z,156.00
2019-03-29T05:30:39.693Z,168.00
2019-03-29T05:31:39.646Z,180.00
2019-03-29T05:32:39.606Z,192.00
2019-03-29T05:33:39.566Z,200.00
2019-03-29T05:34:39.518Z,208.00
2019-03-29T05:35:39.486Z,224.00
2019-03-29T05:36:39.461Z,232.00
2019-03-29T05:37:39.417Z,244.00
2019-03-29T05:38:39.377Z,256.00
2019-03-29T05:39:39.348Z,264.00
2019-03-29T05:40:39.307Z,280.00
2019-03-29T05:41:39.270Z,288.00
2019-03-29T05:42:39.228Z,300.00
2019-03-29T05:43:39.194Z,312.00
2019-03-29T05:44:40.837Z,324.00
2019-03-29T05:45:39.119Z,336.00
2019-03-29T05:46:39.082Z,344.00
2019-03-29T05:47:39.047Z,360.00
2019-03-29T05:48:38.998Z,372.00
2019-03-29T05:49:38.973Z,380.00
2019-03-29T05:50:38.928Z,392.00
2019-03-29T05:51:38.893Z,400.00
2019-03-29T05:52:38.843Z,416.00
2019-03-29T05:53:38.824Z,424.00
2019-03-29T05:54:38.809Z,436.00
2019-03-29T05:55:38.739Z,444.00
2019-03-29T05:56:38.737Z,456.00
2019-03-29T05:57:38.673Z,472.00
2019-03-29T05:58:38.630Z,480.00
2019-03-29T05:59:38.610Z,488.00
2019-03-29T06:00:38.606Z,504.00
2019-03-29T06:01:38.599Z,512.00
2019-03-29T06:02:38.485Z,520.00
2019-03-29T06:03:38.442Z,532.00
2019-03-29T06:04:38.400Z,544.00
2019-03-29T06:05:38.369Z,552.00
2019-03-29T06:06:38.358Z,564.00
2019-03-29T06:07:38.298Z,576.00
2019-03-29T06:08:38.260Z,580.00
2019-03-29T06:09:38.215Z,592.00
2019-03-29T06:10:48.212Z,600.00
2019-03-29T06:11:38.134Z,612.00
2019-03-29T06:12:38.093Z,620.00
2019-03-29T06:13:38.061Z,632.00
2019-03-29T06:14:38.025Z,640.00
2019-03-29T06:15:37.992Z,648.00
2019-03-29T06:16:39.238Z,660.00
2019-03-29T06:17:47.919Z,672.00
2019-03-29T06:18:37.879Z,680.00
2019-03-29T06:19:37.837Z,688.00
2019-03-29T06:20:37.800Z,700.00
2019-03-29T06:21:37.768Z,704.00
2019-03-29T06:22:37.720Z,716.00
2019-03-29T06:23:37.691Z,728.00
2019-03-29T06:24:37.654Z,736.00
2019-03-29T06:25:37.618Z,744.00
2019-03-29T06:26:37.579Z,752.00
2019-03-29T06:27:37.538Z,760.00
2019-03-29T06:28:37.495Z,772.00
2019-03-29T06:29:37.469Z,780.00
2019-03-29T06:30:37.434Z,788.00
2019-03-29T06:31:37.389Z,796.00
2019-03-29T06:32:37.354Z,808.00
2019-03-29T06:33:37.316Z,812.00
2019-03-29T06:34:37.276Z,824.00
2019-03-29T06:35:37.237Z,828.00
2019-03-29T06:36:37.192Z,840.00
2019-03-29T06:37:37.152Z,844.00
2019-03-29T06:38:37.122Z,848.00
2019-03-29T06:39:37.087Z,860.00
2019-03-29T06:40:37.050Z,864.00
2019-03-29T06:41:37.010Z,872.00
2019-03-29T06:42:36.982Z,880.00
2019-03-29T06:43:36.942Z,888.00
2019-03-29T06:44:36.901Z,896.00
2019-03-29T06:45:47.371Z,908.00
2019-03-29T06:46:36.830Z,912.00
2019-03-29T06:47:36.782Z,920.00
2019-03-29T06:48:36.752Z,928.00
2019-03-29T06:49:36.712Z,936.00
2019-03-29T06:50:36.684Z,944.00
2019-03-29T06:51:36.644Z,952.00
2019-03-29T06:52:36.605Z,960.00
2019-03-29T06:53:36.566Z,968.00
2019-03-29T06:54:36.517Z,976.00
2019-03-29T06:55:36.485Z,984.00
2019-03-29T06:56:36.447Z,1000.00
2019-03-29T06:57:36.417Z,1000.00
2019-03-29T06:58:36.376Z,1012.00
2019-03-29T06:59:36.343Z,1020.00
2019-03-29T07:00:36.297Z,1032.00
2019-03-29T07:01:36.279Z,1040.00
2019-03-29T07:02:36.240Z,1048.00
2019-03-29T07:03:36.186Z,1060.00
2019-03-29T07:04:36.152Z,1068.00
2019-03-29T07:05:36.112Z,1080.00
2019-03-29T07:06:36.087Z,1092.00
2019-03-29T07:07:36.038Z,1100.00
2019-03-29T07:08:36.012Z,1108.00
2019-03-29T07:09:35.972Z,1120.00
2019-03-29T07:10:35.941Z,1128.00
2019-03-29T07:11:39.312Z,1136.00
2019-03-29T07:12:35.857Z,1148.00
2019-03-29T07:13:35.831Z,1156.00
2019-03-29T07:14:35.820Z,1168.00
2019-03-29T07:15:35.748Z,1180.00
2019-03-29T07:16:35.708Z,1188.00
2019-03-29T07:17:35.678Z,1200.00
2019-03-29T07:18:35.637Z,1208.00
2019-03-29T07:19:35.598Z,1216.00
2019-03-29T07:20:35.559Z,1220.00
2019-03-29T07:21:35.528Z,1224.00
2019-03-29T07:22:35.489Z,1236.00
2019-03-29T07:23:35.454Z,1244.00
2019-03-29T07:24:35.420Z,1256.00
2019-03-29T07:25:35.380Z,1264.00
2019-03-29T07:26:35.352Z,1268.00
2019-03-29T07:27:44.708Z,1276.00
2019-03-29T07:28:35.278Z,1280.00
2019-03-29T07:29:35.232Z,1296.00
2019-03-29T07:30:35.201Z,1304.00
2019-03-29T07:31:35.159Z,1312.00
2019-03-29T07:32:35.128Z,1316.00
2019-03-29T07:33:35.080Z,1328.00
2019-03-29T07:34:35.051Z,1340.00
2019-03-29T07:35:35.024Z,1348.00
2019-03-29T07:36:34.983Z,1356.00
2019-03-29T07:37:34.940Z,1364.00
2019-03-29T07:38:34.904Z,1368.00
2019-03-29T07:39:34.869Z,1376.00
2019-03-29T07:40:34.828Z,1380.00
2019-03-29T07:41:34.801Z,1384.00
2019-03-29T07:42:34.762Z,1392.00
2019-03-29T07:43:34.725Z,1400.00
2019-03-29T07:44:34.688Z,1412.00
2019-03-29T07:45:34.655Z,1420.00
2019-03-29T07:46:34.610Z,1424.00
2019-03-29T07:47:34.575Z,1432.00
2019-03-29T07:48:34.542Z,1436.00
2019-03-29T07:49:34.529Z,1440.00
2019-03-29T07:50:34.469Z,1448.00
2019-03-29T07:51:34.433Z,1460.00
2019-03-29T07:52:34.398Z,1464.00
2019-03-29T07:53:34.364Z,1480.00
2019-03-29T07:54:34.329Z,1488.00
2019-03-29T07:55:37.078Z,1500.00
2019-03-29T07:56:34.249Z,1508.00
2019-03-29T07:57:34.210Z,1528.00
2019-03-29T07:58:34.306Z,1532.00
2019-03-29T07:59:34.142Z,1536.00
2019-03-29T08:00:34.110Z,1548.00
2019-03-29T08:01:35.637Z,1556.00
2019-03-29T08:02:35.103Z,1568.00
2019-03-29T08:03:34.015Z,1572.00
2019-03-29T08:04:34.028Z,1580.00
2019-03-29T08:05:35.417Z,1584.00
2019-03-29T08:06:33.891Z,1592.00
2019-03-29T08:07:33.886Z,1600.00
2019-03-29T08:08:34.556Z,1604.00
2019-03-29T08:09:33.800Z,1608.00
2019-03-29T08:10:33.769Z,1624.00
2019-03-29T08:11:45.626Z,1628.00
2019-03-29T08:12:33.795Z,1652.00
2019-03-29T08:13:33.651Z,1656.00
2019-03-29T08:14:33.611Z,1660.00
2019-03-29T08:15:33.595Z,1668.00
2019-03-29T08:16:33.536Z,1668.00
2019-03-29T08:17:33.529Z,1668.00
2019-03-29T08:18:33.469Z,1672.00
2019-03-29T08:19:33.433Z,1672.00
2019-03-29T08:20:41.663Z,1696.00
2019-03-29T08:21:33.372Z,1708.00
2019-03-29T08:22:33.333Z,1728.00
2019-03-29T08:23:33.302Z,1744.00
2019-03-29T08:24:33.257Z,1744.00
2019-03-29T08:25:33.227Z,1744.00
2019-03-29T08:26:33.192Z,1760.00
2019-03-29T08:27:33.151Z,1760.00
2019-03-29T08:28:33.128Z,1772.00
2019-03-29T08:29:33.087Z,1780.00
2019-03-29T08:30:33.041Z,1788.00
2019-03-29T08:31:33.017Z,1804.00
2019-03-29T08:32:32.976Z,1816.00
2019-03-29T08:33:32.946Z,1836.00
2019-03-29T08:34:35.740Z,1840.00
2019-03-29T08:35:32.879Z,1864.00
2019-03-29T08:36:32.838Z,1876.00
2019-03-29T08:37:32.809Z,1872.00
2019-03-29T08:38:32.777Z,1872.00
2019-03-29T08:39:32.744Z,1872.00
2019-03-29T08:40:32.707Z,1872.00
2019-03-29T08:41:32.677Z,1884.00
2019-03-29T08:42:32.632Z,1892.00
2019-03-29T08:43:32.589Z,1904.00
2019-03-29T08:44:32.566Z,1912.00
2019-03-29T08:45:32.527Z,1924.00
2019-03-29T08:46:32.493Z,1932.00
2019-03-29T08:47:32.457Z,1944.00
2019-03-29T08:48:32.423Z,1964.00
2019-03-29T08:49:32.404Z,1968.00
2019-03-29T08:50:32.369Z,1968.00
2019-03-29T08:51:32.346Z,1972.00
2019-03-29T08:52:32.294Z,1984.00
2019-03-29T08:53:32.262Z,2000.00
2019-03-29T08:54:32.230Z,2020.00
2019-03-29T08:55:45.095Z,2016.00
2019-03-29T08:56:32.147Z,2024.00
2019-03-29T08:57:32.123Z,2040.00
2019-03-29T08:58:32.089Z,2060.00
2019-03-29T08:59:32.054Z,2088.00
2019-03-29T09:00:32.032Z,2112.00
2019-03-29T09:01:31.986Z,2124.00
2019-03-29T09:02:31.949Z,2116.00
2019-03-29T09:03:31.920Z,2128.00
2019-03-29T09:04:31.880Z,2152.00
2019-03-29T09:05:31.845Z,2196.00
2019-03-29T09:06:31.809Z,2228.00
2019-03-29T09:07:43.945Z,2244.00
2019-03-29T09:08:31.747Z,2244.00
2019-03-29T09:09:31.720Z,2248.00
2019-03-29T09:10:31.688Z,2244.00
2019-03-29T09:11:31.650Z,2244.00
2019-03-29T09:12:31.616Z,2240.00
2019-03-29T09:13:31.585Z,2264.00
2019-03-29T09:14:31.701Z,2292.00
2019-03-29T09:15:31.522Z,2324.00
2019-03-29T09:16:31.489Z,2376.00
2019-03-29T09:17:31.455Z,2388.00
2019-03-29T09:18:31.406Z,2384.00
2019-03-29T09:19:31.380Z,2392.00
2019-03-29T09:20:34.208Z,2384.00
2019-03-29T09:21:31.316Z,2404.00
2019-03-29T09:22:31.284Z,2424.00
2019-03-29T09:23:31.241Z,2448.00
2019-03-29T09:24:31.215Z,2460.00
2019-03-29T09:25:31.195Z,2468.00
2019-03-29T09:26:31.159Z,2488.00
2019-03-29T09:27:32.127Z,2500.00
2019-03-29T09:28:32.980Z,2508.00
2019-03-29T09:29:31.051Z,2528.00
2019-03-29T09:30:31.026Z,2572.00
2019-03-29T09:31:30.984Z,2596.00
2019-03-29T09:32:30.953Z,2616.00
2019-03-29T09:33:30.915Z,2640.00
2019-03-29T09:34:30.892Z,2660.00
2019-03-29T09:35:30.861Z,2656.00
2019-03-29T09:36:30.822Z,2692.00
2019-03-29T09:37:30.785Z,2716.00
2019-03-29T09:38:30.757Z,2716.00
2019-03-29T09:39:30.728Z,2700.00
2019-03-29T09:40:30.696Z,2688.00
2019-03-29T09:41:30.660Z,2708.00
2019-03-29T09:42:30.810Z,2756.00
2019-03-29T09:43:30.597Z,2804.00
2019-03-29T09:44:30.567Z,2844.00
2019-03-29T09:45:30.522Z,2848.00
2019-03-29T09:46:30.497Z,2832.00
2019-03-29T09:47:37.025Z,2808.00
2019-03-29T09:48:30.427Z,2784.00
2019-03-29T09:49:30.490Z,2792.00
2019-03-29T09:50:30.372Z,2828.00
2019-03-29T09:51:30.333Z,2860.00
2019-03-29T09:52:30.302Z,2912.00
2019-03-29T09:53:30.273Z,3132.00
2019-03-29T09:54:30.246Z,4152.00
2019-03-29T09:55:30.212Z,6092.00
2019-03-29T09:56:38.473Z,7672.00
2019-03-29T09:57:37.289Z,8484.00
2019-03-29T09:58:30.118Z,8644.00
2019-03-29T09:59:30.094Z,8568.00
2019-03-29T10:00:30.047Z,8580.00
2019-03-29T10:01:30.124Z,8588.00
2019-03-29T10:02:29.989Z,8568.00
2019-03-29T10:03:29.962Z,8636.00
2019-03-29T10:04:29.947Z,8608.00
2019-03-29T10:05:31.505Z,8600.00
2019-03-29T10:06:29.866Z,8576.00
2019-03-29T10:07:29.854Z,8680.00
2019-03-29T10:08:29.824Z,8664.00
2019-03-29T10:09:29.795Z,8596.00
2019-03-29T10:10:29.772Z,8656.00
2019-03-29T10:11:29.749Z,8612.00
2019-03-29T10:12:42.585Z,8684.00
2019-03-29T10:13:29.686Z,8648.00
2019-03-29T10:14:33.171Z,8612.00
2019-03-29T10:15:29.637Z,8672.00
2019-03-29T10:16:29.603Z,8720.00
2019-03-29T10:17:29.575Z,8748.00
2019-03-29T10:18:29.557Z,8748.00
2019-03-29T10:19:29.541Z,8716.00
2019-03-29T10:20:29.498Z,8756.00
2019-03-29T10:21:29.479Z,8780.00
2019-03-29T10:22:29.444Z,8624.00
2019-03-29T10:23:29.441Z,8688.00
2019-03-29T10:24:29.399Z,8748.00
2019-03-29T10:25:29.377Z,8652.00
2019-03-29T10:26:29.344Z,8644.00
2019-03-29T10:27:29.334Z,8608.00
2019-03-29T10:28:29.304Z,8604.00
2019-03-29T10:29:29.278Z,8712.00
2019-03-29T10:30:29.252Z,8652.00
2019-03-29T10:31:32.472Z,8624.00
2019-03-29T10:32:29.203Z,8596.00
2019-03-29T10:33:29.185Z,8552.00
2019-03-29T10:34:29.154Z,8588.00
2019-03-29T10:35:29.146Z,8604.00
2019-03-29T10:36:29.105Z,8584.00
2019-03-29T10:37:29.084Z,8640.00
2019-03-29T10:38:29.056Z,8652.00
2019-03-29T10:39:29.050Z,8820.00
2019-03-29T10:40:29.019Z,8844.00
2019-03-29T10:41:28.995Z,8804.00
2019-03-29T10:42:28.964Z,8784.00
2019-03-29T10:43:28.946Z,8876.00
2019-03-29T10:44:28.920Z,8936.00
2019-03-29T10:45:28.905Z,8968.00
2019-03-29T10:46:28.866Z,9120.00
2019-03-29T10:47:42.482Z,9132.00
2019-03-29T10:48:28.829Z,9204.00
2019-03-29T10:49:28.809Z,9196.00
2019-03-29T10:50:28.791Z,9208.00
2019-03-29T10:51:28.761Z,9296.00
2019-03-29T10:52:28.735Z,9384.00
2019-03-29T10:53:29.094Z,9448.00
2019-03-29T10:54:28.691Z,9188.00
2019-03-29T10:55:28.666Z,8772.00
2019-03-29T10:56:34.411Z,8804.00
2019-03-29T10:57:28.626Z,9060.00
2019-03-29T10:58:28.605Z,9076.00
2019-03-29T10:59:28.578Z,9240.00
2019-03-29T11:00:28.562Z,9356.00
2019-03-29T11:01:28.531Z,9468.00
2019-03-29T11:02:28.506Z,9524.00
2019-03-29T11:03:28.924Z,9520.00
2019-03-29T11:04:31.737Z,9576.00
2019-03-29T11:05:28.442Z,9768.00
2019-03-29T11:06:28.415Z,9820.00
2019-03-29T11:07:28.402Z,9860.00
2019-03-29T11:08:28.370Z,9832.00
2019-03-29T11:09:28.348Z,9940.00
2019-03-29T11:10:28.325Z,9972.00
2019-03-29T11:11:28.297Z,10032.00
2019-03-29T11:12:28.281Z,10008.00
2019-03-29T11:13:28.275Z,10024.00
2019-03-29T11:14:28.247Z,10032.00
2019-03-29T11:15:28.222Z,10072.00
2019-03-29T11:16:28.203Z,10336.00
2019-03-29T11:17:28.172Z,10540.00
2019-03-29T11:18:28.162Z,10616.00
2019-03-29T11:19:28.123Z,10420.00
2019-03-29T11:20:28.118Z,10356.00
2019-03-29T11:21:28.087Z,10216.00
2019-03-29T11:22:28.068Z,10164.00
2019-03-29T11:23:28.088Z,9916.00
2019-03-29T11:24:28.017Z,9936.00
2019-03-29T11:25:27.997Z,9804.00
2019-03-29T11:26:27.976Z,9960.00
2019-03-29T11:27:27.964Z,10036.00
2019-03-29T11:28:27.933Z,10136.00
2019-03-29T11:29:27.934Z,10112.00
2019-03-29T11:30:41.152Z,9988.00
2019-03-29T11:31:27.874Z,9992.00
2019-03-29T11:32:27.852Z,9928.00
2019-03-29T11:33:27.836Z,9924.00
2019-03-29T11:34:27.815Z,10040.00
2019-03-29T11:35:27.784Z,10052.00
2019-03-29T11:36:27.762Z,10040.00
2019-03-29T11:37:27.738Z,10008.00
2019-03-29T11:38:27.732Z,9904.00
2019-03-29T11:39:27.746Z,10000.00
2019-03-29T11:40:27.669Z,9812.00
2019-03-29T11:41:27.663Z,9620.00
2019-03-29T11:42:27.634Z,9176.00
2019-03-29T11:43:27.637Z,9676.00
2019-03-29T11:44:30.057Z,9708.00
2019-03-29T11:45:27.596Z,9736.00
2019-03-29T11:46:27.530Z,9760.00
2019-03-29T11:47:27.502Z,9776.00
2019-03-29T11:48:29.575Z,9796.00
2019-03-29T11:49:27.469Z,10060.00
2019-03-29T11:50:29.085Z,9980.00
2019-03-29T11:51:27.421Z,9876.00
2019-03-29T11:52:27.395Z,9888.00
2019-03-29T11:53:27.379Z,9836.00
2019-03-29T11:54:27.357Z,9776.00
2019-03-29T11:55:27.354Z,9696.00
2019-03-29T11:56:27.309Z,9688.00
2019-03-29T11:57:27.288Z,9780.00
2019-03-29T11:58:27.271Z,9684.00
2019-03-29T11:59:27.243Z,9632.00
2019-03-29T12:00:27.219Z,9524.00
2019-03-29T12:01:27.205Z,9492.00
2019-03-29T12:02:31.614Z,9452.00
2019-03-29T12:03:27.155Z,9468.00
2019-03-29T12:04:27.131Z,9520.00
2019-03-29T12:05:27.114Z,9432.00
2019-03-29T12:06:27.091Z,9332.00
2019-03-29T12:07:27.066Z,9352.00
2019-03-29T12:08:27.040Z,9360.00
2019-03-29T12:09:27.015Z,9312.00
2019-03-29T12:10:26.997Z,9272.00
2019-03-29T12:11:26.971Z,9272.00
2019-03-29T12:12:27.735Z,9356.00
2019-03-29T12:13:35.088Z,9320.00
2019-03-29T12:14:26.901Z,9376.00
2019-03-29T12:15:26.871Z,9424.00
2019-03-29T12:16:26.851Z,9400.00
2019-03-29T12:17:26.825Z,9420.00
2019-03-29T12:18:26.807Z,9400.00
2019-03-29T12:19:26.781Z,9328.00
2019-03-29T12:20:26.755Z,9296.00
2019-03-29T12:21:26.751Z,9276.00
2019-03-29T12:22:26.717Z,9240.00
2019-03-29T12:23:26.684Z,9264.00
2019-03-29T12:24:26.662Z,9228.00
2019-03-29T12:25:26.627Z,9232.00
2019-03-29T12:26:26.647Z,9304.00
2019-03-29T12:27:26.587Z,9288.00
2019-03-29T12:28:26.566Z,9236.00
2019-03-29T12:29:26.540Z,9288.00
2019-03-29T12:30:31.728Z,9184.00
2019-03-29T12:31:26.519Z,9188.00
2019-03-29T12:32:26.467Z,9164.00
2019-03-29T12:33:26.451Z,9148.00
2019-03-29T12:34:26.424Z,9120.00
2019-03-29T12:35:26.402Z,9124.00
2019-03-29T12:36:26.366Z,9024.00
2019-03-29T12:37:26.346Z,9008.00